createdAt,value
2019-05-16T18:31:42.298Z,34.55
2019-05-16T18:34:16.881Z,34.79
2019-05-16T18:36:50.906Z,34.72
2019-05-16T18:39:20.691Z,34.85
2019-05-16T18:42:03.474Z,34.97
2019-05-16T18:44:33.381Z,35.50
2019-05-16T18:47:13.173Z,35.28
2019-05-16T18:49:47.150Z,35.42
2019-05-16T18:52:18.994Z,35.92
2019-05-16T18:54:50.701Z,35.67
2019-05-16T18:57:26.826Z,35.34
2019-05-16T19:00:07.020Z,35.06
2019-05-16T19:02:36.848Z,35.05
2019-05-16T19:05:12.696Z,35.02
2019-05-16T19:07:42.608Z,35.12
2019-05-16T19:10:17.640Z,35.12
2019-05-16T19:12:53.053Z,35.36
2019-05-16T19:15:26.707Z,35.44
2019-05-16T19:17:58.677Z,35.28
2019-05-16T19:20:28.321Z,35.30
2019-05-16T19:23:02.543Z,35.26
2019-05-16T19:25:36.400Z,35.63
2019-05-16T19:28:18.307Z,35.73
2019-05-16T19:30:48.119Z,35.65
2019-05-16T19:33:18.007Z,36.04
2019-05-16T19:35:48.996Z,36.11
2019-05-16T19:38:20.119Z,36.13
2019-05-16T19:40:51.830Z,36.39
2019-05-16T19:43:28.409Z,36.31
2019-05-16T19:46:02.105Z,36.16
2019-05-16T19:48:33.206Z,36.36
2019-05-16T19:51:07.439Z,36.51
2019-05-16T19:53:36.637Z,36.71
2019-05-16T19:56:10.686Z,37.15
2019-05-16T19:58:46.643Z,37.91
2019-05-16T20:01:16.954Z,38.34
2019-05-16T20:03:58.300Z,38.69
2019-05-16T20:06:31.466Z,39.52
2019-05-16T20:09:08.935Z,40.24
2019-05-16T20:11:46.324Z,40.52
2019-05-16T20:14:39.897Z,40.68
2019-05-16T20:17:19.286Z,40.80
2019-05-16T20:19:48.530Z,41.13
2019-05-16T20:22:22.369Z,41.05
2019-05-16T20:25:01.984Z,41.23
2019-05-16T20:27:43.727Z,41.91
2019-05-16T20:30:27.540Z,42.50
2019-05-16T20:32:57.238Z,42.78
2019-05-16T20:35:37.437Z,43.00
2019-05-16T20:38:07.042Z,43.73
2019-05-16T20:40:39.091Z,43.82
2019-05-16T20:43:16.882Z,43.68
2019-05-16T20:45:49.454Z,44.27
2019-05-16T20:48:33.233Z,44.96
2019-05-16T20:51:07.482Z,45.28
2019-05-16T20:53:38.854Z,45.08
2019-05-16T20:56:10.951Z,45.26
2019-05-16T20:58:41.370Z,45.29
2019-05-16T21:01:11.668Z,45.83
2019-05-16T21:03:43.596Z,46.37
2019-05-16T21:06:19.384Z,46.56
2019-05-16T21:08:57.623Z,46.90
2019-05-16T21:11:31.640Z,47.52
2019-05-16T21:14:01.279Z,47.64
2019-05-16T21:16:32.556Z,47.86
2019-05-16T21:19:03.064Z,47.91
2019-05-16T21:21:33.283Z,48.16
2019-05-16T21:24:17.734Z,47.93
2019-05-16T21:26:49.641Z,48.27
2019-05-16T21:29:19.503Z,48.48
2019-05-16T21:31:48.861Z,48.49
2019-05-16T21:34:19.141Z,48.73
2019-05-16T21:36:49.641Z,48.60
2019-05-16T21:39:19.283Z,48.39
2019-05-16T21:41:50.691Z,48.41
2019-05-16T21:44:20.484Z,48.59
2019-05-16T21:46:56.382Z,49.46
2019-05-16T21:49:27.639Z,49.69
2019-05-16T21:51:57.407Z,49.99
2019-05-16T21:54:28.782Z,50.30
2019-05-16T21:56:58.391Z,50.21
2019-05-16T21:59:28.816Z,49.85
2019-05-16T22:01:59.209Z,50.33
2019-05-16T22:04:29.008Z,50.57
2019-05-16T22:06:59.455Z,51.15
2019-05-16T22:09:31.371Z,51.56
2019-05-16T22:12:01.285Z,51.73
2019-05-16T22:14:36.751Z,52.08
2019-05-16T22:17:06.437Z,52.29
2019-05-16T22:19:36.192Z,52.20
2019-05-16T22:22:07.250Z,52.50
2019-05-16T22:24:41.924Z,52.55
2019-05-16T22:27:12.976Z,52.80
2019-05-16T22:29:45.999Z,53.03
2019-05-16T22:32:16.440Z,53.58
2019-05-16T22:34:47.633Z,53.89
2019-05-16T22:37:17.179Z,53.90
2019-05-16T22:39:49.335Z,54.39
2019-05-16T22:42:20.228Z,54.06
2019-05-16T22:44:51.344Z,54.26
2019-05-16T22:47:22.352Z,54.54
2019-05-16T22:49:56.667Z,55.00
2019-05-16T22:52:26.454Z,54.94
2019-05-16T22:54:54.134Z,54.75
2019-05-16T22:57:23.741Z,54.65
2019-05-16T22:59:59.631Z,54.72
2019-05-16T23:02:29.352Z,54.72
2019-05-16T23:05:02.338Z,54.97
2019-05-16T23:07:31.775Z,55.27
2019-05-16T23:10:07.218Z,55.70
2019-05-16T23:12:38.028Z,55.98
2019-05-16T23:15:09.816Z,56.42
2019-05-16T23:17:39.343Z,56.23
2019-05-16T23:20:09.674Z,56.47
2019-05-16T23:22:39.293Z,56.23
2019-05-16T23:25:14.201Z,56.01
2019-05-16T23:27:47.210Z,55.85
2019-05-16T23:30:16.359Z,55.73
2019-05-16T23:32:46.992Z,55.50
2019-05-16T23:35:15.932Z,55.32
2019-05-16T23:37:46.482Z,55.18
2019-05-16T23:40:16.179Z,54.87
2019-05-16T23:42:46.493Z,54.72
2019-05-16T23:45:17.052Z,54.49
2019-05-16T23:47:46.907Z,54.02
2019-05-16T23:50:13.903Z,53.81
2019-05-16T23:52:42.852Z,53.67
2019-05-16T23:55:13.837Z,53.36
2019-05-16T23:57:42.730Z,53.27
